Item Display Status Humidity-temperature Sensor

Elevation Above Sea Level: 3 m

 

Deployed Sensor

  • Serial Number: 20256959
  • NDBC Property Number: 42277
  • Start Date: 12/6/2018 (14:09:16 Z)
  • End Date: 7/19/2020 (02:00:00 Z)
Relative Humidity [%]     6 entries per hour
Showing data from 7/4/2020 (03:00:00 Z) to 7/3/2020 (00:00:01 Z)
Previous Next [ Day | 3-Days | 7-Days ]
First Last
Prev [ Day | 3-Days | 7-Days ] Next
First Last

Start Time:     :
End Time:     :     
Time (in GMT) :00 :50 :40 :30 :20 :10
Previous Next [ Day | 3-Days | 7-Days ]
First Last
Prev [ Day | 3-Days | 7-Days ] Next
First Last


123 => good data
MM => data is determined as missing
-- => data not received/configured
Back to Top Back to Top
7/4/2020 03:00 to 2:10 82.33 81.06 81.28 82.27 83.64 83.84
7/4/2020 02:00 to 1:10 83.74 83.46 83.84 85.03 86.32 88.23
7/4/2020 01:00 to 0:10 90.28 89.15 85.65 85.49 84.34 86.09
7/4/2020 00:00 to 23:10 85.87 86.13 83.06 81.16 81.12 81.39
7/3/2020 23:00 to 22:10 81.89 80.54 81.20 83.12 84.04 83.30
7/3/2020 22:00 to 21:10 81.79 82.43 83.28 81.39 82.51 82.79
7/3/2020 21:00 to 20:10 84.75 85.05 91.57 91.87 92.01 91.04
7/3/2020 20:00 to 19:10 93.06 94.51 94.67 94.47 92.45 91.95
7/3/2020 19:00 to 18:10 91.45 90.88 89.60 88.75 88.55 87.10
7/3/2020 18:00 to 17:10 84.42 82.49 82.23 82.51 82.91 83.54
7/3/2020 17:00 to 16:10 79.86 80.72 80.60 82.35 83.96 84.58
7/3/2020 16:00 to 15:10 83.64 84.71 85.03 85.29 84.22 83.94
7/3/2020 15:00 to 14:10 83.44 84.36 82.09 81.00 82.61 82.69
7/3/2020 14:00 to 13:10 -- -- -- -- -- --
7/3/2020 13:00 to 12:10 88.49 88.13 86.44 84.56 85.67 86.32
7/3/2020 12:00 to 11:10 84.50 85.23 84.24 84.87 85.01 85.45
7/3/2020 11:00 to 10:10 87.06 87.50 86.03 85.63 86.19 85.89
7/3/2020 10:00 to 9:10 83.16 84.85 86.17 88.37 87.91 86.96
7/3/2020 09:00 to 8:10 85.51 86.90 86.82 84.75 78.85 80.34
7/3/2020 08:00 to 7:10 81.49 85.23 87.91 85.15 86.32 84.36
7/3/2020 07:00 to 6:10 85.09 86.03 83.98 83.88 84.16 83.80
7/3/2020 06:00 to 5:10 85.41 85.33 84.81 86.03 85.25 85.03
7/3/2020 05:00 to 4:10 83.12 83.68 84.62 83.56 83.60 83.52
7/3/2020 04:00 to 3:10 83.94 83.38 83.40 84.08 83.42 81.89
7/3/2020 03:00 to 2:10 82.89 83.46 83.40 82.97 83.14 81.93
7/3/2020 02:00 to 1:10 81.20 83.10 82.05 81.99 81.95 81.65
7/3/2020 01:00 to 0:10 82.95 83.30 81.91 82.25 83.22 84.60

 

 

 

Air Temperature [°C]     6 entries per hour
Showing data from 7/4/2020 (03:00:00 Z) to 7/3/2020 (00:00:01 Z)
Previous Next [ Day | 3-Days | 7-Days ]
First Last
Prev [ Day | 3-Days | 7-Days ] Next
First Last

Start Time:     :
End Time:     :     
Time (in GMT) :00 :50 :40 :30 :20 :10
Previous Next [ Day | 3-Days | 7-Days ]
First Last
Prev [ Day | 3-Days | 7-Days ] Next
First Last


123 => good data
MM => data is determined as missing
-- => data not received/configured
Back to Top Back to Top
7/4/2020 03:00 to 2:10 26.66 26.69 26.65 26.52 26.51 26.59
7/4/2020 02:00 to 1:10 26.66 26.65 26.63 26.54 26.53 26.05
7/4/2020 01:00 to 0:10 25.63 25.65 26.22 26.57 26.52 26.51
7/4/2020 00:00 to 23:10 26.51 26.52 26.71 26.75 26.67 26.68
7/3/2020 23:00 to 22:10 26.71 26.66 26.58 26.59 26.59 26.71
7/3/2020 22:00 to 21:10 26.61 26.71 26.91 26.65 26.56 26.59
7/3/2020 21:00 to 20:10 26.46 26.39 25.60 24.74 25.14 25.64
7/3/2020 20:00 to 19:10 25.51 25.37 24.66 24.97 25.76 25.63
7/3/2020 19:00 to 18:10 25.70 25.70 25.76 25.93 25.95 26.14
7/3/2020 18:00 to 17:10 26.23 26.50 26.45 26.64 26.47 26.80
7/3/2020 17:00 to 16:10 26.80 26.74 26.68 26.63 26.52 26.53
7/3/2020 16:00 to 15:10 26.69 26.68 26.66 26.74 26.83 26.76
7/3/2020 15:00 to 14:10 26.67 26.54 26.70 26.67 26.60 26.50
7/3/2020 14:00 to 13:10 -- -- -- -- -- --
7/3/2020 13:00 to 12:10 25.93 26.05 26.45 26.26 26.27 26.27
7/3/2020 12:00 to 11:10 26.18 26.37 26.24 26.27 26.19 26.20
7/3/2020 11:00 to 10:10 26.35 26.17 26.30 26.35 26.24 26.28
7/3/2020 10:00 to 9:10 26.18 26.46 26.36 26.07 26.11 26.44
7/3/2020 09:00 to 8:10 26.21 26.32 26.39 26.58 26.26 26.37
7/3/2020 08:00 to 7:10 26.25 25.71 26.25 26.50 26.56 26.47
7/3/2020 07:00 to 6:10 26.53 26.60 26.48 26.62 26.62 26.64
7/3/2020 06:00 to 5:10 26.72 26.55 26.44 26.45 26.71 26.78
7/3/2020 05:00 to 4:10 26.62 26.69 26.80 26.72 26.71 26.59
7/3/2020 04:00 to 3:10 26.75 26.82 26.56 26.63 26.59 26.64
7/3/2020 03:00 to 2:10 26.59 26.58 26.60 26.60 26.47 26.60
7/3/2020 02:00 to 1:10 26.62 26.58 26.66 26.50 26.67 26.55
7/3/2020 01:00 to 0:10 26.61 26.59 26.63 26.66 26.64 26.84